Time;durP1;ratioP1;P1;durP2;ratioP2;P2;SDS_P1;SDS_P2;PMS_P1;PMS_P2;Temp;Humidity;BMP_temperature;BMP_pressure;BME280_temperature;BME280_humidity;BME280_pressure;Samples;Min_cycle;Max_cycle;Signal;HPM_P1;HPM_P2
2022/07/21 06:43:43;;;;;;;65.32;48.60;;;26.80;81.10;;;;;;5068740;28;20420;-77
2022/07/21 06:46:09;;;;;;;58.45;47.85;;;26.70;82.50;;;;;;5065964;28;20391;-78
2022/07/21 06:48:35;;;;;;;61.05;48.72;;;26.70;83.80;;;;;;5068931;28;20095;-78
2022/07/21 06:51:01;;;;;;;59.10;47.25;;;26.80;83.90;;;;;;5061086;28;20440;-78
2022/07/21 06:53:26;;;;;;;47.30;41.90;;;26.80;83.00;;;;;;5048558;28;20090;-77
2022/07/21 06:55:53;;;;;;;51.65;42.08;;;26.90;81.40;;;;;;5058796;28;20033;-77
2022/07/21 06:58:24;;;;;;;48.40;38.75;;;27.00;79.60;;;;;;5048496;28;20017;-77
2022/07/21 07:00:50;;;;;;;48.47;39.92;;;27.10;79.20;;;;;;5058065;28;20036;-79
2022/07/21 07:03:17;;;;;;;45.63;39.58;;;27.20;78.90;;;;;;5048435;28;20537;-79
2022/07/21 07:05:45;;;;;;;41.13;36.53;;;27.30;78.40;;;;;;5057858;28;20040;-78
2022/07/21 07:08:11;;;;;;;49.88;40.80;;;27.30;77.30;;;;;;5047976;28;20029;-83
2022/07/21 07:10:37;;;;;;;44.13;39.35;;;27.50;78.00;;;;;;5055574;28;20053;-76
2022/07/21 07:13:03;;;;;;;61.83;48.97;;;27.60;77.70;;;;;;5065797;28;20443;-76
2022/07/21 07:15:29;;;;;;;55.58;48.72;;;27.70;75.40;;;;;;5059634;28;20028;-76
2022/07/21 07:17:55;;;;;;;63.58;53.13;;;27.80;78.20;;;;;;5049450;28;20052;-76
2022/07/21 07:20:22;;;;;;;73.57;62.95;;;27.90;77.90;;;;;;5052974;28;20110;-77
2022/07/21 07:22:48;;;;;;;81.28;58.83;;;28.00;76.30;;;;;;5050033;28;20065;-76
2022/07/21 07:25:16;;;;;;;90.75;55.17;;;28.10;77.00;;;;;;5051977;28;20499;-77
2022/07/21 07:27:46;;;;;;;97.10;77.88;;;28.20;77.70;;;;;;5050977;28;20026;-77
2022/07/21 07:30:13;;;;;;;98.05;77.93;;;28.30;73.90;;;;;;5054442;28;20021;-75
2022/07/21 07:32:40;;;;;;;107.10;85.85;;;28.40;74.00;;;;;;5051284;28;20048;-76
2022/07/21 07:35:07;;;;;;;99.18;85.03;;;28.60;73.50;;;;;;5052995;28;20021;-76
2022/07/21 07:37:37;;;;;;;101.80;89.45;;;28.60;73.10;;;;;;5061241;28;20036;-76
2022/07/21 07:40:07;;;;;;;130.00;113.80;;;28.70;72.60;;;;;;5061145;28;20024;-75
2022/07/21 07:42:33;;;;;;;132.95;114.72;;;28.90;68.00;;;;;;5053355;28;20049;-77
2022/07/21 07:44:59;;;;;;;131.15;106.82;;;29.00;67.90;;;;;;5053026;28;20035;-76
2022/07/21 07:47:25;;;;;;;130.57;111.97;;;29.20;68.80;;;;;;5060072;28;20025;-77
2022/07/21 07:49:52;;;;;;;120.75;104.80;;;29.30;68.60;;;;;;5060920;28;20025;-78
2022/07/21 07:52:19;;;;;;;111.65;97.57;;;29.30;67.90;;;;;;5055519;28;20107;-77
2022/07/21 07:54:45;;;;;;;120.32;104.28;;;29.40;69.00;;;;;;5038460;28;20074;-77
2022/07/21 07:57:11;;;;;;;126.90;110.45;;;29.40;68.40;;;;;;5042675;28;20108;-77
2022/07/21 07:59:37;;;;;;;139.23;118.63;;;29.50;68.70;;;;;;5037696;28;20090;-77
2022/07/21 08:02:02;;;;;;;151.73;127.03;;;29.60;67.70;;;;;;5044988;28;20487;-77
2022/07/21 08:04:28;;;;;;;113.88;99.72;;;29.70;66.20;;;;;;5050376;28;20033;-76
2022/07/21 08:06:54;;;;;;;107.63;95.28;;;29.80;67.30;;;;;;5041247;28;20466;-77
2022/07/21 08:09:20;;;;;;;112.55;92.35;;;29.80;67.20;;;;;;5036022;28;20032;-75
2022/07/21 08:11:47;;;;;;;103.30;90.50;;;29.90;69.20;;;;;;5042322;28;20037;-75
2022/07/21 08:14:14;;;;;;;81.63;70.03;;;30.00;69.70;;;;;;5032863;28;20420;-75
2022/07/21 08:16:40;;;;;;;75.72;67.18;;;29.80;68.80;;;;;;5044543;28;20048;-75
2022/07/21 08:19:09;;;;;;;85.55;67.28;;;29.50;69.30;;;;;;5051414;28;20483;-77
2022/07/21 08:21:35;;;;;;;83.10;68.05;;;29.30;69.10;;;;;;5043148;28;20051;-76
2022/07/21 08:24:01;;;;;;;75.75;66.53;;;29.20;69.50;;;;;;5033725;28;20502;-76
2022/07/21 08:26:27;;;;;;;79.32;67.10;;;29.20;71.10;;;;;;5043474;28;20061;-77
2022/07/21 08:28:55;;;;;;;83.50;73.97;;;29.20;70.80;;;;;;5032023;28;20059;-76
2022/07/21 08:31:21;;;;;;;92.57;75.88;;;29.20;69.20;;;;;;5039428;28;20104;-78
2022/07/21 08:33:47;;;;;;;90.15;75.50;;;29.20;69.10;;;;;;5049656;28;20161;-79
2022/07/21 08:36:12;;;;;;;90.03;76.03;;;29.20;69.50;;;;;;5042637;28;20029;-75
2022/07/21 08:38:38;;;;;;;93.93;77.07;;;29.30;68.30;;;;;;5031345;28;20046;-75
2022/07/21 08:41:04;;;;;;;94.88;80.90;;;29.40;67.80;;;;;;5042173;28;20025;-75
2022/07/21 08:43:30;;;;;;;97.93;83.35;;;29.50;66.90;;;;;;5032825;28;20136;-76
2022/07/21 08:45:56;;;;;;;91.82;81.68;;;29.50;68.00;;;;;;5038073;28;20161;-76
2022/07/21 08:48:26;;;;;;;92.95;82.85;;;29.50;69.30;;;;;;5053068;28;20433;-78
2022/07/21 08:50:52;;;;;;;96.68;83.82;;;29.50;69.80;;;;;;5039229;28;20369;-76
2022/07/21 08:53:21;;;;;;;110.40;88.00;;;29.40;69.00;;;;;;5032956;28;20033;-76
2022/07/21 08:55:47;;;;;;;97.25;86.75;;;29.50;69.10;;;;;;5043226;28;20044;-76
2022/07/21 08:58:13;;;;;;;103.15;90.65;;;29.60;69.00;;;;;;5033514;28;20088;-77
2022/07/21 09:00:45;;;;;;;110.65;94.80;;;29.70;68.60;;;;;;5041978;28;20029;-76
2022/07/21 09:03:19;;;;;;;105.82;92.65;;;29.90;68.70;;;;;;5033605;28;20038;-75
2022/07/21 09:06:15;;;;;;;103.88;92.05;;;29.90;69.20;;;;;;5041727;28;20078;-76
2022/07/21 09:08:53;;;;;;;106.45;89.60;;;29.80;69.10;;;;;;5032586;28;20076;-78
2022/07/21 09:11:27;;;;;;;108.95;88.70;;;29.90;71.20;;;;;;5042149;28;20116;-76
2022/07/21 09:14:14;;;;;;;97.20;86.68;;;29.90;73.10;;;;;;5032694;28;20057;-76
2022/07/21 09:16:39;;;;;;;103.88;87.15;;;30.00;73.00;;;;;;5043210;28;20021;-77
2022/07/21 09:19:06;;;;;;;101.22;88.57;;;30.00;73.20;;;;;;5050469;28;20038;-77
2022/07/21 09:21:35;;;;;;;98.80;88.10;;;30.10;73.10;;;;;;5042143;28;20075;-77
2022/07/21 09:24:28;;;;;;;103.13;90.53;;;30.20;72.40;;;;;;5032584;28;20117;-77
2022/07/21 09:26:58;;;;;;;106.63;93.50;;;30.20;71.90;;;;;;5040974;28;20033;-80
2022/07/21 09:29:24;;;;;;;112.53;93.20;;;30.20;71.30;;;;;;5033517;28;20025;-78
2022/07/21 09:31:50;;;;;;;106.95;95.50;;;30.30;71.30;;;;;;5041668;28;20498;-77
2022/07/21 09:34:17;;;;;;;106.30;94.70;;;30.40;71.10;;;;;;5050208;28;20030;-75
2022/07/21 09:36:57;;;;;;;115.32;99.97;;;30.50;72.20;;;;;;5040685;28;20025;-76
2022/07/21 09:39:47;;;;;;;149.07;119.13;;;30.70;69.80;;;;;;5034426;28;20096;-76
2022/07/21 09:42:42;;;;;;;213.55;188.98;;;30.80;68.10;;;;;;5040609;28;20109;-77
2022/07/21 09:45:12;;;;;;;177.20;149.23;;;31.00;65.80;;;;;;5037925;28;20080;-78
2022/07/21 09:47:38;;;;;;;117.45;99.75;;;31.00;65.90;;;;;;5046284;28;20056;-76
2022/07/21 09:50:06;;;;;;;109.57;97.97;;;31.10;70.00;;;;;;5045262;28;20089;-78
2022/07/21 09:52:37;;;;;;;116.18;95.40;;;31.00;69.70;;;;;;5038089;28;20021;-77
2022/07/21 09:55:06;;;;;;;111.57;96.30;;;30.90;70.90;;;;;;5036027;28;20103;-77
2022/07/21 09:57:32;;;;;;;119.53;99.60;;;31.00;71.10;;;;;;5037987;28;20457;-76
2022/07/21 09:59:58;;;;;;;126.47;107.93;;;31.00;70.50;;;;;;5035291;28;20021;-77
2022/07/21 10:02:24;;;;;;;119.50;104.32;;;31.10;69.80;;;;;;5039053;28;20037;-77
2022/07/21 10:04:57;;;;;;;128.77;114.63;;;31.10;69.00;;;;;;5032798;28;20025;-77
2022/07/21 10:07:24;;;;;;;136.10;114.13;;;31.30;66.90;;;;;;5038966;28;20026;-77
2022/07/21 10:09:49;;;;;;;126.38;105.32;;;31.30;66.50;;;;;;5033912;28;20618;-77
2022/07/21 10:12:17;;;;;;;121.03;101.80;;;31.40;67.90;;;;;;5038715;28;20246;-77
2022/07/21 10:14:43;;;;;;;126.35;112.55;;;31.30;68.90;;;;;;5036425;28;20017;-77
2022/07/21 10:17:09;;;;;;;106.00;92.72;;;31.30;68.20;;;;;;5040968;28;20073;-78
2022/07/21 10:19:52;;;;;;;104.75;93.30;;;31.20;72.50;;;;;;5046733;28;20467;-78
2022/07/21 10:22:49;;;;;;;126.72;112.80;;;31.10;71.80;;;;;;5042839;28;20532;-77
2022/07/21 10:25:16;;;;;;;134.63;115.88;;;30.90;65.40;;;;;;5044942;28;20356;-78
2022/07/21 10:28:17;;;;;;;121.03;107.90;;;30.90;67.30;;;;;;5036302;28;20475;-78
2022/07/21 10:30:53;;;;;;;115.32;102.65;;;30.90;67.10;;;;;;5033759;28;20033;-77
2022/07/21 10:33:20;;;;;;;122.55;108.82;;;30.90;69.20;;;;;;5031287;28;20434;-77
2022/07/21 10:35:51;;;;;;;120.97;105.03;;;30.80;69.90;;;;;;5041393;28;20029;-77
2022/07/21 10:38:27;;;;;;;126.25;111.72;;;30.70;73.80;;;;;;5031269;28;20049;-77
2022/07/21 10:40:54;;;;;;;129.85;115.35;;;30.80;73.60;;;;;;5042158;28;20029;-76
2022/07/21 10:43:26;;;;;;;130.45;115.85;;;30.70;76.00;;;;;;5030985;28;20054;-76
2022/07/21 10:45:53;;;;;;;139.90;123.90;;;30.60;77.90;;;;;;5036874;28;20484;-77
2022/07/21 10:48:39;;;;;;;148.82;125.75;;;30.60;78.30;;;;;;5029867;28;20558;-78
2022/07/21 10:51:09;;;;;;;149.45;133.05;;;30.50;86.00;;;;;;5042191;28;20560;-77
2022/07/21 10:53:35;;;;;;;156.25;133.38;;;30.40;89.50;;;;;;5030854;28;20013;-77
2022/07/21 10:56:01;;;;;;;157.68;137.32;;;30.40;90.30;;;;;;5042257;28;20021;-78
2022/07/21 10:58:36;;;;;;;155.48;137.23;;;30.30;88.90;;;;;;5030707;28;20475;-76
2022/07/21 11:01:19;;;;;;;158.57;132.68;;;30.20;88.50;;;;;;5041936;28;20032;-77
2022/07/21 11:03:45;;;;;;;153.65;136.80;;;30.20;88.80;;;;;;5029501;28;20418;-77
2022/07/21 11:06:22;;;;;;;160.75;136.93;;;30.40;85.40;;;;;;5037769;28;20512;-77
2022/07/21 11:09:04;;;;;;;154.60;137.05;;;30.60;83.40;;;;;;5050177;28;20121;-76
2022/07/21 11:11:38;;;;;;;167.85;143.27;;;30.90;85.60;;;;;;5040320;28;20043;-78
2022/07/21 11:14:18;;;;;;;170.30;142.82;;;31.00;86.10;;;;;;5049501;28;20033;-78
2022/07/21 11:16:52;;;;;;;168.70;142.40;;;31.10;84.90;;;;;;5045231;28;20018;-77
2022/07/21 11:19:39;;;;;;;167.63;145.40;;;31.20;83.00;;;;;;5048636;28;20356;-77
2022/07/21 11:22:10;;;;;;;168.25;146.10;;;31.40;84.30;;;;;;5038071;28;20029;-77
2022/07/21 11:24:36;;;;;;;174.30;146.27;;;31.40;84.30;;;;;;5033162;28;20028;-78
2022/07/21 11:27:05;;;;;;;169.02;146.10;;;31.40;83.90;;;;;;5039459;28;20040;-76
2022/07/21 11:29:32;;;;;;;155.45;138.88;;;31.50;80.80;;;;;;5035191;28;20021;-78
2022/07/21 11:32:01;;;;;;;167.45;137.77;;;31.60;77.30;;;;;;5041770;28;20087;-78
2022/07/21 11:34:41;;;;;;;151.80;133.48;;;31.70;74.80;;;;;;5036881;28;20108;-77
2022/07/21 11:37:07;;;;;;;157.13;133.05;;;31.90;75.70;;;;;;5042949;28;20268;-77
2022/07/21 11:39:33;;;;;;;138.57;123.60;;;32.00;74.90;;;;;;5036734;28;20122;-77
2022/07/21 11:42:07;;;;;;;131.70;117.50;;;32.00;74.10;;;;;;5042788;28;20069;-76
2022/07/21 11:44:34;;;;;;;129.88;114.07;;;32.00;72.80;;;;;;5037950;28;20123;-76
2022/07/21 11:47:02;;;;;;;123.68;108.65;;;32.10;74.60;;;;;;5045220;28;20025;-76
2022/07/21 11:49:28;;;;;;;125.28;108.30;;;32.20;72.40;;;;;;5050400;28;20028;-77
2022/07/21 11:51:57;;;;;;;112.20;100.10;;;32.20;73.90;;;;;;5042688;28;20021;-78
2022/07/21 11:54:37;;;;;;;104.32;92.32;;;32.30;72.80;;;;;;5036360;28;20017;-76
2022/07/21 11:57:08;;;;;;;100.30;85.82;;;32.40;70.20;;;;;;5042691;28;20033;-76
2022/07/21 11:59:35;;;;;;;80.78;71.25;;;32.40;69.30;;;;;;5036317;28;20438;-78
2022/07/21 12:02:11;;;;;;;91.88;78.53;;;32.50;67.70;;;;;;5042540;28;20030;-77
2022/07/21 12:04:45;;;;;;;71.90;64.10;;;32.50;71.40;;;;;;5036289;28;20079;-77
2022/07/21 12:07:24;;;;;;;94.95;74.43;;;32.70;70.50;;;;;;5042364;28;20022;-78
2022/07/21 12:09:56;;;;;;;77.63;66.78;;;32.70;69.10;;;;;;5036294;28;20037;-78
2022/07/21 12:12:36;;;;;;;71.47;63.67;;;33.30;68.60;;;;;;5041235;28;20087;-77
2022/07/21 12:15:16;;;;;;;87.50;70.28;;;34.50;64.90;;;;;;5038287;28;20025;-76
2022/07/21 12:17:45;;;;;;;95.80;82.95;;;35.70;65.30;;;;;;5048621;28;20386;-78
2022/07/21 12:20:11;;;;;;;61.97;52.70;;;37.00;67.70;;;;;;5046807;28;20503;-77
2022/07/21 12:22:44;;;;;;;70.10;56.70;;;37.80;59.70;;;;;;5038860;28;20045;-78
2022/07/21 12:25:11;;;;;;;55.80;47.88;;;37.70;61.10;;;;;;5037386;28;20025;-78
2022/07/21 12:27:39;;;;;;;67.53;55.03;;;37.60;59.40;;;;;;5046345;28;20044;-77
2022/07/21 12:30:07;;;;;;;54.90;45.65;;;38.10;59.90;;;;;;5046524;28;20052;-79
2022/07/21 12:32:48;;;;;;;54.92;41.67;;;38.60;57.20;;;;;;5039407;28;20039;-79
2022/07/21 12:35:23;;;;;;;51.97;45.50;;;39.20;55.90;;;;;;5037159;28;20021;-79
2022/07/21 12:38:12;;;;;;;47.33;41.35;;;40.00;54.00;;;;;;5035279;28;20281;-78
2022/07/21 12:40:41;;;;;;;54.22;47.95;;;40.50;53.30;;;;;;5040325;28;20024;-80
2022/07/21 12:43:18;;;;;;;50.65;45.10;;;40.60;54.20;;;;;;5032463;28;20045;-77
2022/07/21 12:45:45;;;;;;;58.28;46.90;;;40.90;54.80;;;;;;5037057;28;20029;-79
2022/07/21 12:48:12;;;;;;;44.10;39.30;;;40.50;54.10;;;;;;5049984;28;20514;-78
2022/07/21 12:50:39;;;;;;;44.55;39.78;;;40.50;53.50;;;;;;5045888;28;20028;-79
2022/07/21 12:53:11;;;;;;;54.35;47.70;;;40.50;54.20;;;;;;5034721;28;20084;-78
2022/07/21 12:55:38;;;;;;;41.30;37.05;;;40.70;55.70;;;;;;5041996;28;20572;-79
2022/07/21 12:58:04;;;;;;;55.70;43.50;;;40.80;53.60;;;;;;5034724;28;20033;-78
2022/07/21 13:00:31;;;;;;;44.05;36.30;;;41.20;55.30;;;;;;5040669;28;20511;-78
2022/07/21 13:02:57;;;;;;;39.53;35.35;;;41.80;53.50;;;;;;5035705;28;20033;-77
2022/07/21 13:05:25;;;;;;;45.25;33.10;;;41.70;52.90;;;;;;5039876;28;20029;-76
2022/07/21 13:07:51;;;;;;;40.05;34.00;;;41.50;52.50;;;;;;5036475;28;20018;-79
2022/07/21 13:10:18;;;;;;;38.97;33.97;;;42.20;52.80;;;;;;5039039;28;20025;-78
2022/07/21 13:12:44;;;;;;;43.05;34.45;;;42.60;52.30;;;;;;5036953;28;20117;-80
2022/07/21 13:15:11;;;;;;;38.03;31.88;;;42.20;51.10;;;;;;5038388;28;20030;-77
2022/07/21 13:17:36;;;;;;;37.33;33.30;;;41.80;51.10;;;;;;5045265;28;20032;-80
2022/07/21 13:20:06;;;;;;;39.10;32.95;;;41.10;51.40;;;;;;5046007;28;20033;-79
2022/07/21 13:22:32;;;;;;;44.25;37.65;;;41.10;51.90;;;;;;5038547;28;20014;-81
2022/07/21 13:24:57;;;;;;;41.78;37.35;;;41.70;51.40;;;;;;5035820;28;20499;-79
2022/07/21 13:27:23;;;;;;;40.30;36.05;;;42.00;51.00;;;;;;5039648;28;20032;-79
2022/07/21 13:29:49;;;;;;;44.08;39.30;;;42.10;50.50;;;;;;5034508;28;20025;-77
2022/07/21 13:32:15;;;;;;;44.78;40.00;;;42.50;51.40;;;;;;5043385;28;20029;-79
2022/07/21 13:34:40;;;;;;;47.50;42.50;;;43.40;50.40;;;;;;5046872;28;20109;-77
2022/07/21 13:37:11;;;;;;;37.65;33.65;;;43.10;50.00;;;;;;5040736;28;20048;-78
2022/07/21 13:39:40;;;;;;;39.25;35.22;;;42.50;49.40;;;;;;5034515;28;20483;-77
2022/07/21 13:42:07;;;;;;;37.63;33.20;;;42.20;50.40;;;;;;5040565;28;20049;-78
2022/07/21 13:44:34;;;;;;;31.42;26.95;;;42.50;50.20;;;;;;5035621;28;20033;-79
2022/07/21 13:47:00;;;;;;;55.60;43.92;;;43.10;48.00;;;;;;5043073;28;20499;-77
2022/07/21 13:49:25;;;;;;;54.85;46.30;;;42.80;51.00;;;;;;5048391;28;20031;-77
2022/07/21 13:51:51;;;;;;;56.42;47.30;;;42.40;52.20;;;;;;5040090;28;20109;-81
2022/07/21 13:54:17;;;;;;;63.42;48.60;;;42.20;52.50;;;;;;5034124;28;20034;-77
2022/07/21 13:56:43;;;;;;;45.78;37.83;;;42.50;53.20;;;;;;5039345;28;20403;-78
2022/07/21 13:59:08;;;;;;;40.40;35.15;;;42.70;50.20;;;;;;5033055;28;20034;-77
2022/07/21 14:01:34;;;;;;;55.25;48.83;;;43.10;48.90;;;;;;5041426;28;20029;-78
2022/07/21 14:04:00;;;;;;;53.85;43.35;;;42.50;50.40;;;;;;5032480;28;20021;-80
2022/07/21 14:06:26;;;;;;;37.38;33.33;;;42.90;49.80;;;;;;5040466;28;20017;-78
2022/07/21 14:08:51;;;;;;;46.25;38.85;;;42.70;48.40;;;;;;5050177;28;20024;-79
2022/07/21 14:11:18;;;;;;;36.60;32.00;;;42.90;49.70;;;;;;5040160;28;20013;-78
2022/07/21 14:13:43;;;;;;;33.47;30.20;;;43.10;48.50;;;;;;5051182;28;20040;-77
2022/07/21 14:16:09;;;;;;;35.45;31.25;;;42.30;48.60;;;;;;5039330;28;20391;-77
2022/07/21 14:18:35;;;;;;;36.67;31.83;;;41.90;47.80;;;;;;5050106;28;20445;-79
2022/07/21 14:21:01;;;;;;;28.88;23.92;;;41.50;49.50;;;;;;5043747;28;20033;-78
2022/07/21 14:23:27;;;;;;;30.08;26.98;;;41.60;47.70;;;;;;5029834;28;20163;-77
2022/07/21 14:25:53;;;;;;;34.28;28.38;;;41.70;48.10;;;;;;5042512;28;20024;-80
2022/07/21 14:28:19;;;;;;;28.27;23.17;;;41.90;49.40;;;;;;5030113;28;20372;-79
2022/07/21 14:30:45;;;;;;;34.42;28.50;;;41.90;48.30;;;;;;5041383;28;20356;-78
2022/07/21 14:33:14;;;;;;;38.65;23.83;;;41.60;49.90;;;;;;5032054;28;20487;-76
2022/07/21 14:35:40;;;;;;;16.33;13.43;;;41.50;49.20;;;;;;5040496;28;20118;-76
2022/07/21 14:38:06;;;;;;;19.50;11.57;;;40.80;47.10;;;;;;5032673;28;20049;-75
2022/07/21 14:40:31;;;;;;;20.85;13.50;;;40.60;47.50;;;;;;5039370;28;20025;-77
2022/07/21 14:42:57;;;;;;;24.40;15.98;;;40.70;48.10;;;;;;5033825;28;20045;-76
2022/07/21 14:45:23;;;;;;;18.67;14.27;;;40.80;48.40;;;;;;5035609;28;20088;-78
2022/07/21 14:47:54;;;;;;;19.25;17.23;;;40.80;47.20;;;;;;5033750;28;20025;-77
2022/07/21 14:50:22;;;;;;;24.90;21.40;;;40.40;48.20;;;;;;5037577;28;20029;-78
2022/07/21 14:52:47;;;;;;;31.92;25.08;;;40.30;49.10;;;;;;5035072;28;20438;-78
2022/07/21 14:55:13;;;;;;;26.48;23.58;;;40.10;50.30;;;;;;5036864;28;20099;-78
2022/07/21 14:57:39;;;;;;;38.63;28.48;;;39.70;50.10;;;;;;5036304;28;20033;-78
2022/07/21 15:00:08;;;;;;;37.28;30.60;;;39.30;51.60;;;;;;5038231;28;20447;-77
2022/07/21 15:02:33;;;;;;;37.42;30.58;;;39.40;52.20;;;;;;5035844;28;20048;-78
2022/07/21 15:04:59;;;;;;;48.22;28.17;;;39.50;52.30;;;;;;5036439;28;20064;-78
2022/07/21 15:07:25;;;;;;;25.73;21.05;;;39.60;52.00;;;;;;5042154;28;20022;-77
2022/07/21 15:09:51;;;;;;;24.20;17.23;;;39.30;50.00;;;;;;5038747;28;20035;-77
2022/07/21 15:12:17;;;;;;;21.05;18.13;;;39.00;49.40;;;;;;5046211;28;20112;-77
2022/07/21 15:14:42;;;;;;;44.25;34.17;;;38.80;48.80;;;;;;5051831;28;20033;-77
2022/07/21 15:17:08;;;;;;;35.30;24.33;;;39.00;52.20;;;;;;5045933;28;20024;-77
2022/07/21 15:19:37;;;;;;;31.00;22.00;;;38.60;50.10;;;;;;5050170;28;20077;-78
2022/07/21 15:22:02;;;;;;;38.17;31.13;;;38.10;50.10;;;;;;5043165;28;20459;-77
2022/07/21 15:24:29;;;;;;;34.50;23.15;;;37.70;52.50;;;;;;5037029;28;20109;-77
2022/07/21 15:26:54;;;;;;;29.40;25.40;;;37.60;51.30;;;;;;5043358;28;20018;-80
2022/07/21 15:29:20;;;;;;;42.60;33.03;;;37.70;52.00;;;;;;5036921;28;20124;-77
2022/07/21 15:31:46;;;;;;;39.60;35.20;;;37.90;53.80;;;;;;5041796;28;20033;-78
2022/07/21 15:34:12;;;;;;;41.17;33.97;;;37.70;53.80;;;;;;5036177;28;20079;-78
2022/07/21 15:36:37;;;;;;;41.20;33.47;;;37.30;53.60;;;;;;5043676;28;20036;-79
2022/07/21 15:39:04;;;;;;;41.28;32.40;;;37.50;53.60;;;;;;5034750;28;20022;-77
2022/07/21 15:41:35;;;;;;;41.33;31.38;;;37.70;53.80;;;;;;5044609;28;20634;-77
2022/07/21 15:44:01;;;;;;;;;;;37.60;52.70;;;;;;5036265;28;20107;-78
2022/07/21 15:46:26;;;;;;;46.08;38.88;;;37.50;52.50;;;;;;5043158;28;19949;-78
2022/07/21 15:48:52;;;;;;;51.17;39.85;;;37.60;54.30;;;;;;5053154;28;20025;-80
2022/07/21 15:51:18;;;;;;;48.95;42.28;;;38.00;54.40;;;;;;5045082;28;20132;-79
2022/07/21 15:53:43;;;;;;;42.60;37.90;;;38.20;54.80;;;;;;5033902;28;20026;-78
2022/07/21 15:56:09;;;;;;;48.35;38.97;;;38.40;53.30;;;;;;5045279;28;20529;-76
2022/07/21 15:58:35;;;;;;;46.47;39.80;;;38.30;53.80;;;;;;5034110;28;20127;-79
2022/07/21 16:01:00;;;;;;;49.05;43.03;;;38.30;54.10;;;;;;5045046;28;20028;-79
2022/07/21 16:03:26;;;;;;;54.63;43.78;;;38.30;54.50;;;;;;5033884;28;20034;-77
2022/07/21 16:05:52;;;;;;;55.00;46.45;;;38.60;54.50;;;;;;5044870;28;20029;-78
2022/07/21 16:08:19;;;;;;;59.95;49.70;;;38.50;54.30;;;;;;5032754;28;20115;-79
2022/07/21 16:10:44;;;;;;;54.50;48.15;;;37.90;54.90;;;;;;5043842;28;20025;-78
2022/07/21 16:13:11;;;;;;;58.35;47.60;;;37.80;56.00;;;;;;5033240;28;20148;-78
2022/07/21 16:15:36;;;;;;;45.85;39.42;;;37.80;56.00;;;;;;5038911;28;20017;-77
2022/07/21 16:18:02;;;;;;;42.97;37.95;;;37.80;54.90;;;;;;5049975;28;20021;-78
2022/07/21 16:20:29;;;;;;;44.63;35.80;;;37.50;55.10;;;;;;5046131;28;20036;-77
2022/07/21 16:22:55;;;;;;;38.92;32.13;;;37.40;55.10;;;;;;5050084;28;20035;-78
2022/07/21 16:25:22;;;;;;;41.58;36.47;;;37.30;54.00;;;;;;5047103;28;20087;-78
2022/07/21 16:27:51;;;;;;;46.70;37.05;;;37.10;55.40;;;;;;5037560;28;20068;-78
2022/07/21 16:30:17;;;;;;;39.95;35.25;;;36.80;55.80;;;;;;5040148;28;20442;-78
2022/07/21 16:32:44;;;;;;;54.97;44.25;;;36.60;55.40;;;;;;5048303;28;20033;-78
2022/07/21 16:35:15;;;;;;;53.03;44.47;;;36.50;57.20;;;;;;5045436;28;20061;-77
2022/07/21 16:37:45;;;;;;;50.63;41.67;;;36.40;57.70;;;;;;5047895;28;20021;-77
2022/07/21 16:40:14;;;;;;;53.38;44.25;;;36.30;57.20;;;;;;5046715;28;20033;-79
2022/07/21 16:42:40;;;;;;;54.70;44.60;;;36.30;58.00;;;;;;5038220;28;20042;-77
2022/07/21 16:45:06;;;;;;;53.83;43.35;;;36.20;57.80;;;;;;5039036;28;20029;-79
2022/07/21 16:47:31;;;;;;;45.28;40.45;;;35.80;57.40;;;;;;5046602;28;20025;-79
2022/07/21 16:49:57;;;;;;;41.58;34.03;;;35.60;57.80;;;;;;5045160;28;20475;-78
2022/07/21 16:52:23;;;;;;;42.63;34.00;;;35.60;57.20;;;;;;5040349;28;20164;-77
2022/07/21 16:54:48;;;;;;;43.03;37.47;;;35.30;57.00;;;;;;5035365;28;20022;-78
2022/07/21 16:57:14;;;;;;;48.85;38.88;;;35.30;58.00;;;;;;5041596;28;20100;-77
2022/07/21 16:59:39;;;;;;;44.35;34.90;;;35.10;58.10;;;;;;5036322;28;20483;-78
2022/07/21 17:02:05;;;;;;;40.17;35.45;;;34.90;58.00;;;;;;5043690;28;20033;-79
2022/07/21 17:04:31;;;;;;;38.67;33.33;;;34.60;59.60;;;;;;5048766;28;20033;-78
2022/07/21 17:06:57;;;;;;;40.20;33.28;;;34.50;58.30;;;;;;5041407;28;20049;-78
2022/07/21 17:09:22;;;;;;;37.63;32.40;;;34.40;58.50;;;;;;5032840;28;20041;-81
2022/07/21 17:11:48;;;;;;;39.08;31.50;;;34.30;58.80;;;;;;5043685;28;20100;-82
2022/07/21 17:14:14;;;;;;;39.28;33.63;;;34.10;59.10;;;;;;5050510;28;20039;-79
2022/07/21 17:16:39;;;;;;;39.40;32.38;;;34.00;59.60;;;;;;5040277;28;20105;-77
2022/07/21 17:19:05;;;;;;;44.10;33.15;;;33.90;59.20;;;;;;5033467;28;20037;-78
2022/07/21 17:21:31;;;;;;;40.28;32.40;;;33.90;59.70;;;;;;5042947;28;20447;-78
2022/07/21 17:23:57;;;;;;;33.92;28.98;;;33.90;59.50;;;;;;5032967;28;20439;-78
2022/07/21 17:26:22;;;;;;;35.67;27.77;;;33.70;58.90;;;;;;5042494;28;20030;-79
2022/07/21 17:28:48;;;;;;;40.58;30.58;;;33.60;59.30;;;;;;5032229;28;20021;-78
2022/07/21 17:31:15;;;;;;;36.83;31.25;;;33.60;59.80;;;;;;5042495;28;20108;-78
2022/07/21 17:33:41;;;;;;;35.42;26.63;;;33.60;59.90;;;;;;5032202;28;20498;-79
2022/07/21 17:36:09;;;;;;;36.22;28.23;;;33.50;59.20;;;;;;5043567;28;20107;-78
2022/07/21 17:38:35;;;;;;;38.15;29.60;;;33.30;59.40;;;;;;5032278;28;20030;-79
2022/07/21 17:41:02;;;;;;;36.83;29.83;;;33.20;60.40;;;;;;5039935;28;20041;-77
2022/07/21 17:43:28;;;;;;;35.70;28.40;;;33.00;60.50;;;;;;5050589;28;20592;-78
2022/07/21 17:45:54;;;;;;;34.80;28.40;;;33.00;60.80;;;;;;5045452;28;20029;-76
2022/07/21 17:48:19;;;;;;;28.05;24.23;;;32.80;61.00;;;;;;5032108;28;20044;-78
2022/07/21 17:50:45;;;;;;;32.67;26.60;;;32.70;60.40;;;;;;5041608;28;20387;-79
2022/07/21 17:53:11;;;;;;;29.52;25.98;;;32.60;62.00;;;;;;5032661;28;20029;-76
2022/07/21 17:55:37;;;;;;;30.30;26.17;;;32.60;61.70;;;;;;5035902;28;20026;-74
2022/07/21 18:00:47;;;;;;;30.77;26.40;;;32.50;61.10;;;;;;5045406;28;20063;-78
2022/07/21 18:03:13;;;;;;;36.92;26.60;;;32.40;61.60;;;;;;5032595;28;20056;-76
2022/07/21 18:05:40;;;;;;;31.40;25.90;;;32.30;61.70;;;;;;5040953;28;20036;-77
2022/07/21 18:08:06;;;;;;;29.60;26.02;;;32.20;61.60;;;;;;5033332;28;20025;-75
2022/07/21 18:10:32;;;;;;;32.55;23.95;;;32.10;61.80;;;;;;5039697;28;20506;-78
2022/07/21 18:12:57;;;;;;;28.27;22.60;;;32.10;61.90;;;;;;5034411;28;20041;-78
2022/07/21 18:15:23;;;;;;;24.95;20.77;;;32.00;61.20;;;;;;5036990;28;20029;-74
2022/07/21 18:17:49;;;;;;;26.35;20.20;;;31.80;60.60;;;;;;5035278;28;20048;-76
2022/07/21 18:20:15;;;;;;;25.02;20.63;;;31.60;60.50;;;;;;5037276;28;20035;-76
2022/07/21 18:22:40;;;;;;;29.85;24.05;;;31.60;60.90;;;;;;5036519;28;20025;-77
2022/07/21 18:25:07;;;;;;;33.72;26.52;;;31.50;61.90;;;;;;5036244;28;20025;-77
2022/07/21 18:27:33;;;;;;;34.90;28.23;;;31.30;64.40;;;;;;5036436;28;20079;-75
2022/07/21 18:29:58;;;;;;;33.47;29.85;;;31.20;65.40;;;;;;5035161;28;20415;-75
2022/07/21 18:32:24;;;;;;;47.42;35.85;;;31.00;67.10;;;;;;5037256;28;20468;-76
2022/07/21 18:34:50;;;;;;;49.35;41.00;;;30.80;69.70;;;;;;5033622;28;20112;-75
2022/07/21 18:37:15;;;;;;;54.42;41.53;;;30.50;72.30;;;;;;5050932;28;20029;-75
2022/07/21 18:39:44;;;;;;;49.08;41.47;;;30.30;73.60;;;;;;5045677;28;20064;-75
2022/07/21 18:42:10;;;;;;;52.97;42.05;;;30.10;75.10;;;;;;5039652;28;20507;-77
2022/07/21 18:44:35;;;;;;;51.67;42.05;;;30.00;74.90;;;;;;5032092;28;20048;-77
2022/07/21 18:47:01;;;;;;;48.60;42.20;;;29.80;74.60;;;;;;5042188;28;20027;-75
2022/07/21 18:49:27;;;;;;;51.63;42.03;;;29.70;75.00;;;;;;5046716;28;20489;-73
2022/07/21 18:51:52;;;;;;;53.03;43.08;;;29.60;74.10;;;;;;5042095;28;20048;-74
2022/07/21 18:54:18;;;;;;;49.08;42.45;;;29.50;75.20;;;;;;5048772;28;20026;-77
2022/07/21 18:56:44;;;;;;;51.40;43.13;;;29.50;75.90;;;;;;5038047;28;20382;-75
2022/07/21 18:59:10;;;;;;;57.78;43.65;;;29.40;75.90;;;;;;5050165;28;20084;-74
2022/07/21 19:01:36;;;;;;;52.58;45.65;;;29.40;76.00;;;;;;5045280;28;20032;-74
2022/07/21 19:04:02;;;;;;;52.97;44.33;;;29.30;76.30;;;;;;5041120;28;20028;-75
2022/07/21 19:06:27;;;;;;;56.67;45.13;;;29.30;76.90;;;;;;5044415;28;20021;-75
2022/07/21 19:08:53;;;;;;;52.97;46.33;;;29.20;77.30;;;;;;5039472;28;20029;-76
2022/07/21 19:11:19;;;;;;;53.85;44.78;;;29.10;77.10;;;;;;5033294;28;20025;-75
2022/07/21 19:13:44;;;;;;;48.88;43.38;;;29.00;76.90;;;;;;5039328;28;20304;-76